createdAt,value
2018-02-16T00:00:16.336Z,4.90
2018-02-16T00:02:44.571Z,4.80
2018-02-16T00:05:13.576Z,4.80
2018-02-16T00:07:41.811Z,4.90
2018-02-16T00:10:10.873Z,4.90
2018-02-16T00:12:39.107Z,5.00
2018-02-16T00:15:08.100Z,5.00
2018-02-16T00:17:37.423Z,5.00
2018-02-16T00:20:06.059Z,5.10
2018-02-16T00:22:34.304Z,5.00
2018-02-16T00:25:02.951Z,5.10
2018-02-16T00:27:31.183Z,5.10
2018-02-16T00:29:59.435Z,5.10
2018-02-16T00:32:27.817Z,5.10
2018-02-16T00:34:56.826Z,5.20
2018-02-16T00:37:26.428Z,5.10
2018-02-16T00:39:55.314Z,5.20
2018-02-16T00:42:23.548Z,5.20
2018-02-16T00:47:21.652Z,5.20
2018-02-16T00:52:20.487Z,5.10
2018-02-16T00:57:24.484Z,5.10
2018-02-16T00:59:54.219Z,5.10
2018-02-16T01:02:22.451Z,5.00
2018-02-16T01:04:50.994Z,5.00
2018-02-16T01:07:19.227Z,5.00
2018-02-16T01:09:48.236Z,4.90
2018-02-16T01:14:53.024Z,4.90
2018-02-16T01:17:22.767Z,4.90
2018-02-16T01:19:51.767Z,4.80
2018-02-16T01:22:20.436Z,4.80
2018-02-16T01:24:49.044Z,4.80
2018-02-16T01:27:17.283Z,4.80
2018-02-16T01:29:46.911Z,4.80
2018-02-16T01:32:15.543Z,4.80
2018-02-16T01:34:43.783Z,4.90
2018-02-16T01:37:15.863Z,4.80
2018-02-16T01:39:46.035Z,4.80
2018-02-16T01:52:39.657Z,4.70
2018-02-16T01:55:08.283Z,4.70
2018-02-16T01:57:36.915Z,4.60
2018-02-16T02:00:06.527Z,4.70
2018-02-16T02:02:35.528Z,4.60
2018-02-16T02:05:04.943Z,4.60
2018-02-16T02:07:33.269Z,4.60
2018-02-16T02:10:03.022Z,4.50
2018-02-16T02:12:31.259Z,4.40
2018-02-16T02:15:00.863Z,4.40
2018-02-16T02:17:30.248Z,4.40
2018-02-16T02:19:58.511Z,4.40
2018-02-16T02:22:27.900Z,4.40
2018-02-16T02:24:57.642Z,4.40
2018-02-16T02:27:25.871Z,4.40
2018-02-16T02:29:55.164Z,4.30
2018-02-16T02:32:23.392Z,4.30
2018-02-16T02:34:53.135Z,4.30
2018-02-16T02:37:21.609Z,4.30
2018-02-16T02:39:51.080Z,4.30
2018-02-16T02:42:19.311Z,4.30
2018-02-16T02:44:47.838Z,4.30
2018-02-16T02:47:16.832Z,4.30
2018-02-16T02:49:45.060Z,4.30
2018-02-16T02:52:14.443Z,4.40
2018-02-16T02:54:43.071Z,4.40
2018-02-16T02:57:11.304Z,4.40
2018-02-16T02:59:40.352Z,4.30
2018-02-16T03:02:09.351Z,4.30
2018-02-16T03:04:37.575Z,4.30
2018-02-16T03:07:05.967Z,4.30
2018-02-16T03:09:34.203Z,4.30
2018-02-16T03:12:02.496Z,4.30
2018-02-16T03:14:31.071Z,4.30
2018-02-16T03:17:00.090Z,4.30
2018-02-16T03:19:28.332Z,4.30
2018-02-16T03:21:56.880Z,4.30
2018-02-16T03:24:25.115Z,4.30
2018-02-16T03:26:53.356Z,4.30
2018-02-16T03:29:23.220Z,4.30
2018-02-16T03:31:52.955Z,4.30
2018-02-16T03:34:21.959Z,4.30
2018-02-16T03:36:51.988Z,4.40
2018-02-16T03:39:20.227Z,4.40
2018-02-16T03:41:50.862Z,4.40
2018-02-16T03:44:20.880Z,4.40
2018-02-16T03:46:49.520Z,4.40
2018-02-16T03:49:18.155Z,4.40
2018-02-16T03:51:46.647Z,4.40
2018-02-16T03:56:44.349Z,4.40
2018-02-16T03:59:12.989Z,4.50
2018-02-16T04:01:41.983Z,4.50
2018-02-16T04:04:10.220Z,4.50
2018-02-16T04:06:39.125Z,4.50
2018-02-16T04:09:07.355Z,4.50
2018-02-16T04:11:36.365Z,4.60
2018-02-16T04:14:05.672Z,4.50
2018-02-16T04:16:34.686Z,4.60
2018-02-16T04:19:03.321Z,4.50
2018-02-16T04:21:31.951Z,4.60
2018-02-16T04:24:00.203Z,4.60
2018-02-16T04:28:58.062Z,4.60
2018-02-16T04:31:26.300Z,4.60
2018-02-16T04:33:54.523Z,4.60
2018-02-16T04:41:32.474Z,4.60
2018-02-16T04:44:03.343Z,4.60
2018-02-16T04:46:32.751Z,4.60
2018-02-16T04:51:30.849Z,4.60
2018-02-16T04:53:59.104Z,4.60
2018-02-16T04:56:28.107Z,4.60
2018-02-16T04:58:56.736Z,4.50
2018-02-16T05:01:24.968Z,4.50
2018-02-16T05:03:53.348Z,4.50
2018-02-16T05:06:21.584Z,4.50
2018-02-16T05:08:50.951Z,4.50
2018-02-16T05:11:20.283Z,4.50
2018-02-16T05:13:48.542Z,4.40
2018-02-16T05:18:46.520Z,4.40
2018-02-16T05:23:44.219Z,4.40
2018-02-16T05:26:13.668Z,4.40
2018-02-16T05:28:42.668Z,4.30
2018-02-16T05:31:10.908Z,4.40
2018-02-16T05:33:39.432Z,4.40
2018-02-16T05:36:09.182Z,4.40
2018-02-16T05:38:37.475Z,4.30
2018-02-16T05:41:06.646Z,4.30
2018-02-16T05:43:34.884Z,4.30
2018-02-16T05:46:04.843Z,4.30
2018-02-16T05:48:34.036Z,4.20
2018-02-16T05:51:02.263Z,4.20
2018-02-16T05:53:31.260Z,4.20
2018-02-16T05:56:00.474Z,4.20
2018-02-16T05:58:29.476Z,4.20
2018-02-16T06:00:57.712Z,4.20
2018-02-16T06:03:28.255Z,4.20
2018-02-16T06:05:56.487Z,4.20
2018-02-16T06:08:24.748Z,4.20
2018-02-16T06:10:55.123Z,4.20
2018-02-16T06:13:24.129Z,4.20
2018-02-16T06:18:22.725Z,4.20
2018-02-16T06:20:50.960Z,4.20
2018-02-16T06:23:20.323Z,4.20
2018-02-16T06:25:49.434Z,4.20
2018-02-16T06:30:47.123Z,4.10
2018-02-16T06:33:15.776Z,4.10
2018-02-16T06:35:44.023Z,4.00
2018-02-16T06:38:12.258Z,4.00
2018-02-16T06:43:15.846Z,4.00
2018-02-16T06:45:44.081Z,3.90
2018-02-16T06:48:12.499Z,3.90
2018-02-16T06:50:42.804Z,3.90
2018-02-16T06:53:11.810Z,4.00
2018-02-16T06:55:40.811Z,3.90
2018-02-16T06:58:09.207Z,4.00
2018-02-16T07:00:38.969Z,4.00
2018-02-16T07:03:08.345Z,4.00
2018-02-16T07:10:41.280Z,4.00
2018-02-16T07:13:09.525Z,4.10
2018-02-16T07:15:39.287Z,4.10
2018-02-16T07:18:07.548Z,4.10
2018-02-16T07:20:35.810Z,4.10
2018-02-16T07:23:04.179Z,4.20
2018-02-16T07:25:32.411Z,4.20
2018-02-16T07:28:00.652Z,4.20
2018-02-16T07:30:29.419Z,4.20
2018-02-16T07:32:57.663Z,4.30
2018-02-16T07:35:25.913Z,4.30
2018-02-16T07:37:54.428Z,4.40
2018-02-16T07:40:22.659Z,4.50
2018-02-16T07:42:51.659Z,4.50
2018-02-16T07:45:21.273Z,4.60
2018-02-16T07:47:50.275Z,4.70
2018-02-16T07:50:18.884Z,4.70
2018-02-16T07:52:48.519Z,4.80
2018-02-16T07:55:16.756Z,4.90
2018-02-16T07:57:44.992Z,4.90
2018-02-16T08:00:13.495Z,5.00
2018-02-16T08:02:41.747Z,5.10
2018-02-16T08:05:11.132Z,5.10
2018-02-16T08:10:14.078Z,5.20
2018-02-16T08:12:42.318Z,5.20
2018-02-16T08:15:11.323Z,5.20
2018-02-16T08:17:40.221Z,5.20
2018-02-16T08:20:08.464Z,5.30
2018-02-16T08:22:37.832Z,5.60
2018-02-16T08:25:06.775Z,6.10
2018-02-16T08:27:35.000Z,6.40
2018-02-16T08:30:03.996Z,7.00
2018-02-16T08:32:32.590Z,7.80
2018-02-16T08:35:00.835Z,8.80
2018-02-16T08:37:29.043Z,9.70
2018-02-16T08:42:31.731Z,11.60
2018-02-16T08:45:00.727Z,12.50
2018-02-16T08:47:28.955Z,13.60
2018-02-16T08:49:59.055Z,14.50
2018-02-16T08:52:30.896Z,15.40
2018-02-16T08:54:59.144Z,16.20
2018-02-16T08:57:28.204Z,16.80
2018-02-16T08:59:57.578Z,17.50
2018-02-16T09:02:25.807Z,18.30
2018-02-16T09:04:54.187Z,19.10
2018-02-16T09:07:22.416Z,19.40
2018-02-16T09:09:51.040Z,19.50
2018-02-16T09:12:23.942Z,19.90
2018-02-16T09:14:52.172Z,20.10
2018-02-16T09:17:20.400Z,20.30
2018-02-16T09:19:49.084Z,20.40
2018-02-16T09:22:17.304Z,20.80
2018-02-16T09:24:46.495Z,21.20
2018-02-16T09:27:15.635Z,21.10
2018-02-16T09:29:43.855Z,21.10
2018-02-16T09:32:12.088Z,21.80
2018-02-16T09:34:41.322Z,22.00
2018-02-16T09:37:09.551Z,22.40
2018-02-16T09:39:40.560Z,22.50
2018-02-16T09:42:11.076Z,22.90
2018-02-16T09:44:39.324Z,23.60
2018-02-16T09:47:07.574Z,24.00
2018-02-16T09:49:37.835Z,24.40
2018-02-16T09:52:06.064Z,24.90
2018-02-16T09:54:35.980Z,25.40
2018-02-16T09:57:04.860Z,25.80
2018-02-16T09:59:34.228Z,26.10
2018-02-16T10:02:02.458Z,26.10
2018-02-16T10:04:32.363Z,25.90
2018-02-16T10:07:00.592Z,25.90
2018-02-16T10:09:28.823Z,26.00
2018-02-16T10:11:58.775Z,26.10
2018-02-16T10:14:27.780Z,26.20
2018-02-16T10:16:56.789Z,26.20
2018-02-16T10:19:26.047Z,26.20
2018-02-16T10:21:55.039Z,26.70
2018-02-16T10:24:23.272Z,26.80
2018-02-16T10:26:52.044Z,27.00
2018-02-16T10:29:20.270Z,27.00
2018-02-16T10:31:49.631Z,27.30
2018-02-16T10:36:53.163Z,27.60
2018-02-16T10:39:21.779Z,27.60
2018-02-16T10:41:50.809Z,27.80
2018-02-16T10:44:19.243Z,27.90
2018-02-16T10:46:48.231Z,27.60
2018-02-16T10:49:16.452Z,27.50
2018-02-16T10:51:45.036Z,27.40
2018-02-16T10:56:45.068Z,28.20
2018-02-16T10:59:14.141Z,28.60
2018-02-16T11:01:43.495Z,29.00
2018-02-16T11:04:17.487Z,29.60
2018-02-16T11:06:49.042Z,30.10
2018-02-16T11:11:49.259Z,30.80
2018-02-16T11:14:18.260Z,31.30
2018-02-16T11:16:47.260Z,31.50
2018-02-16T11:19:15.488Z,31.30
2018-02-16T11:21:43.729Z,31.10
2018-02-16T11:24:13.491Z,30.60
2018-02-16T11:26:42.115Z,30.10
2018-02-16T11:29:10.365Z,30.20
2018-02-16T11:31:40.305Z,30.30
2018-02-16T11:34:09.309Z,30.70
2018-02-16T11:36:38.405Z,30.50
2018-02-16T11:39:06.891Z,29.90
2018-02-16T11:44:04.984Z,28.50
2018-02-16T11:49:03.820Z,26.20
2018-02-16T11:51:32.036Z,25.40
2018-02-16T11:54:03.015Z,25.70
2018-02-16T11:56:31.636Z,26.70
2018-02-16T11:59:00.260Z,27.50
2018-02-16T12:01:30.367Z,28.40
2018-02-16T12:03:59.723Z,28.90
2018-02-16T12:06:27.951Z,29.70
2018-02-16T12:08:57.796Z,30.10
2018-02-16T12:11:26.016Z,30.50
2018-02-16T12:13:54.251Z,30.60
2018-02-16T12:18:57.495Z,30.50
2018-02-16T12:21:26.483Z,30.40
2018-02-16T12:23:55.108Z,30.00
2018-02-16T12:26:23.993Z,29.80
2018-02-16T12:28:52.996Z,29.60
2018-02-16T12:31:21.228Z,29.70
2018-02-16T12:33:50.596Z,29.90
2018-02-16T12:36:19.215Z,30.10
2018-02-16T12:38:47.451Z,30.40
2018-02-16T12:41:15.908Z,30.60
2018-02-16T12:43:45.644Z,30.90
2018-02-16T12:46:15.376Z,31.00
2018-02-16T12:48:44.920Z,30.20
2018-02-16T12:51:13.903Z,29.70
2018-02-16T12:53:42.123Z,29.80
2018-02-16T12:56:13.004Z,30.50
2018-02-16T13:01:10.865Z,31.00
2018-02-16T13:03:40.456Z,30.90
2018-02-16T13:06:09.443Z,31.10
2018-02-16T13:11:09.648Z,30.70
2018-02-16T13:13:38.646Z,31.00
2018-02-16T13:16:06.875Z,30.80
2018-02-16T13:18:36.128Z,30.60
2018-02-16T13:21:05.129Z,30.80
2018-02-16T13:23:34.849Z,31.00
2018-02-16T13:26:04.103Z,31.70
2018-02-16T13:28:32.361Z,31.80
2018-02-16T13:31:01.700Z,30.70
2018-02-16T13:33:30.942Z,30.40
2018-02-16T13:35:59.928Z,28.80
2018-02-16T13:38:28.143Z,27.40
2018-02-16T13:43:26.204Z,24.70
2018-02-16T13:45:54.428Z,24.60
2018-02-16T13:50:53.240Z,25.30
2018-02-16T13:53:22.616Z,25.40
2018-02-16T13:55:52.061Z,25.40
2018-02-16T13:58:20.688Z,25.10
2018-02-16T14:00:48.912Z,24.20
2018-02-16T14:03:19.592Z,23.30
2018-02-16T14:05:47.821Z,22.90
2018-02-16T14:08:16.044Z,22.70
2018-02-16T14:10:46.372Z,22.30
2018-02-16T14:13:15.684Z,21.90
2018-02-16T14:15:43.912Z,21.70
2018-02-16T14:20:48.135Z,21.60
2018-02-16T14:23:17.868Z,21.20
2018-02-16T14:25:46.864Z,20.80
2018-02-16T14:28:15.299Z,20.50
2018-02-16T14:30:44.292Z,20.40
2018-02-16T14:33:12.516Z,20.20
2018-02-16T14:38:10.732Z,19.20
2018-02-16T14:40:38.960Z,18.50
2018-02-16T14:43:07.990Z,18.20
2018-02-16T14:45:36.992Z,18.20
2018-02-16T14:50:35.781Z,18.40
2018-02-16T14:53:05.527Z,18.40
2018-02-16T14:55:33.757Z,18.30
2018-02-16T14:58:02.117Z,18.20
2018-02-16T15:00:30.348Z,18.10
2018-02-16T15:02:58.563Z,18.00
2018-02-16T15:05:30.296Z,17.80
2018-02-16T15:07:58.524Z,17.70
2018-02-16T15:12:56.519Z,17.10
2018-02-16T15:15:26.256Z,17.00
2018-02-16T15:20:25.352Z,16.90
2018-02-16T15:25:24.564Z,16.70
2018-02-16T15:27:54.111Z,16.50
2018-02-16T15:35:21.507Z,15.50
2018-02-16T15:40:19.579Z,15.00
2018-02-16T15:42:48.360Z,14.60
2018-02-16T15:45:17.724Z,14.40
2018-02-16T15:50:16.747Z,13.80
2018-02-16T15:57:44.435Z,13.00
2018-02-16T16:00:12.672Z,12.90
2018-02-16T16:02:40.907Z,12.70
2018-02-16T16:12:39.528Z,12.20
2018-02-16T16:15:09.267Z,12.10
2018-02-16T16:17:37.505Z,12.00
2018-02-16T16:20:07.440Z,11.90
2018-02-16T16:22:38.247Z,11.80
2018-02-16T16:25:07.276Z,11.60
2018-02-16T16:27:36.036Z,11.50
2018-02-16T16:30:04.268Z,11.40
2018-02-16T16:32:32.487Z,11.30
2018-02-16T16:35:02.884Z,11.10
2018-02-16T16:37:31.875Z,11.00
2018-02-16T16:40:00.096Z,10.80
2018-02-16T16:42:29.319Z,10.70
2018-02-16T16:44:58.307Z,10.50
2018-02-16T16:47:26.544Z,10.40
2018-02-16T16:52:27.932Z,10.10
2018-02-16T16:54:56.564Z,10.00
2018-02-16T16:57:25.757Z,9.80
2018-02-16T16:59:54.833Z,9.70
2018-02-16T17:02:23.836Z,9.50
2018-02-16T17:07:48.731Z,9.30
2018-02-16T17:10:17.396Z,9.10
2018-02-16T17:12:45.616Z,8.90
2018-02-16T17:17:43.800Z,8.70
2018-02-16T17:20:12.067Z,8.70
2018-02-16T17:22:41.284Z,8.60
2018-02-16T17:25:09.956Z,8.50
2018-02-16T17:27:38.242Z,8.40
2018-02-16T17:30:07.028Z,8.40
2018-02-16T17:32:35.310Z,8.30
2018-02-16T17:35:04.344Z,8.30
2018-02-16T17:37:33.496Z,8.20
2018-02-16T17:40:01.732Z,8.20
2018-02-16T17:42:31.476Z,8.10
2018-02-16T17:45:00.048Z,8.10
2018-02-16T17:47:30.100Z,8.00
2018-02-16T17:49:59.111Z,8.00
2018-02-16T17:52:28.104Z,7.90
2018-02-16T17:54:57.468Z,7.80
2018-02-16T17:57:25.768Z,7.80
2018-02-16T17:59:54.424Z,7.70
2018-02-16T18:02:22.647Z,7.60
2018-02-16T18:07:20.700Z,7.50
2018-02-16T18:09:49.308Z,7.50
2018-02-16T18:12:18.348Z,7.50
2018-02-16T18:14:47.558Z,7.50
2018-02-16T18:17:16.202Z,7.40
2018-02-16T18:19:44.424Z,7.30
2018-02-16T18:22:14.520Z,7.30
2018-02-16T18:24:42.760Z,7.20
2018-02-16T18:27:11.112Z,7.10
2018-02-16T18:29:41.176Z,7.10
2018-02-16T18:32:09.406Z,7.00
2018-02-16T18:34:37.631Z,7.00
2018-02-16T18:37:06.204Z,6.90
2018-02-16T18:39:34.431Z,6.90
2018-02-16T18:44:34.263Z,6.80
2018-02-16T18:49:31.992Z,6.80
2018-02-16T18:52:00.696Z,6.80
2018-02-16T18:54:30.237Z,6.70
2018-02-16T18:56:58.875Z,6.60
2018-02-16T18:59:27.324Z,6.60
2018-02-16T19:01:56.315Z,6.60
2018-02-16T19:04:24.544Z,6.60
2018-02-16T19:06:54.629Z,6.50
2018-02-16T19:09:23.624Z,6.40
2018-02-16T19:11:53.121Z,6.40
2018-02-16T19:14:21.687Z,6.40
2018-02-16T19:16:51.060Z,6.30
2018-02-16T19:19:19.418Z,6.30
2018-02-16T19:24:19.476Z,6.20
2018-02-16T19:26:47.767Z,6.10
2018-02-16T19:29:17.048Z,6.10
2018-02-16T19:34:14.868Z,6.10
2018-02-16T19:36:44.458Z,6.00
2018-02-16T19:39:13.863Z,6.10
2018-02-16T19:41:42.083Z,6.00
2018-02-16T19:44:10.828Z,6.00
2018-02-16T19:56:47.816Z,5.80
2018-02-16T20:01:51.595Z,5.70
2018-02-16T20:06:49.308Z,5.60
2018-02-16T20:09:17.901Z,5.60
2018-02-16T20:11:46.387Z,5.60
2018-02-16T20:16:47.702Z,5.60
2018-02-16T20:19:16.014Z,5.60
2018-02-16T20:21:44.875Z,5.50
2018-02-16T20:26:48.177Z,5.50
2018-02-16T20:29:16.408Z,5.40
2018-02-16T20:31:45.868Z,5.40
2018-02-16T20:34:15.560Z,5.40
2018-02-16T20:36:44.560Z,5.40
2018-02-16T20:39:12.800Z,5.30
2018-02-16T20:41:42.080Z,5.30
2018-02-16T20:44:11.084Z,5.30
2018-02-16T20:49:09.484Z,5.30
2018-02-16T20:51:37.720Z,5.30
2018-02-16T20:54:05.965Z,5.30
2018-02-16T20:56:35.884Z,5.30
2018-02-16T20:59:05.636Z,5.20
2018-02-16T21:01:34.303Z,5.20
2018-02-16T21:04:02.932Z,5.10
2018-02-16T21:06:32.736Z,5.10
2018-02-16T21:09:00.984Z,5.00
2018-02-16T21:11:31.047Z,5.00
2018-02-16T21:16:30.429Z,5.00
2018-02-16T21:18:59.767Z,5.00
2018-02-16T21:21:28.777Z,5.00
2018-02-16T21:23:57.003Z,5.00
2018-02-16T21:31:25.899Z,5.00
2018-02-16T21:33:55.288Z,5.00
2018-02-16T21:38:53.759Z,5.00
2018-02-16T21:41:22.361Z,4.90
2018-02-16T22:37:51.780Z,4.50
2018-02-16T22:40:20.415Z,4.50
2018-02-16T22:42:48.659Z,4.40
2018-02-16T22:45:17.365Z,4.40
2018-02-16T22:47:46.359Z,4.30
2018-02-16T22:50:14.587Z,4.20
2018-02-16T22:52:43.188Z,4.30
2018-02-16T22:55:12.923Z,4.20
2018-02-16T22:57:41.920Z,4.30
2018-02-16T23:02:45.520Z,4.20
2018-02-16T23:05:14.520Z,4.20
2018-02-16T23:07:44.260Z,4.30
2018-02-16T23:10:12.828Z,4.20
2018-02-16T23:12:42.195Z,4.20
2018-02-16T23:15:10.423Z,4.20
2018-02-16T23:17:39.843Z,4.10
2018-02-16T23:20:08.472Z,4.20
2018-02-16T23:22:36.695Z,4.20
2018-02-16T23:25:05.504Z,4.20
2018-02-16T23:27:34.134Z,4.20
2018-02-16T23:30:02.371Z,4.20
2018-02-16T23:32:32.479Z,4.20
2018-02-16T23:37:30.656Z,4.40
2018-02-16T23:40:00.267Z,4.40
2018-02-16T23:42:28.832Z,4.40
2018-02-16T23:44:57.828Z,4.50
2018-02-16T23:47:27.574Z,4.50
2018-02-16T23:49:56.564Z,4.50
2018-02-16T23:52:26.306Z,4.60
2018-02-16T23:54:54.851Z,4.60
2018-02-16T23:57:23.475Z,4.60
2018-02-16T23:59:51.721Z,4.70
